createdAt,value
2022-11-28T00:02:24.221Z,19.73
2022-11-28T00:04:54.405Z,22.10
2022-11-28T00:07:24.306Z,21.10
2022-11-28T00:09:54.292Z,21.57
2022-11-28T00:12:24.238Z,22.07
2022-11-28T00:14:54.069Z,21.30
2022-11-28T00:17:23.588Z,19.23
2022-11-28T00:19:53.406Z,21.17
2022-11-28T00:22:23.202Z,20.60
2022-11-28T00:24:53.111Z,19.00
2022-11-28T00:27:22.951Z,21.67
2022-11-28T00:29:55.193Z,21.13
2022-11-28T00:32:24.678Z,20.48
2022-11-28T00:34:54.625Z,19.53
2022-11-28T00:37:24.403Z,14.43
2022-11-28T00:39:54.542Z,19.35
2022-11-28T00:42:24.506Z,19.33
2022-11-28T00:44:54.342Z,18.93
2022-11-28T00:47:23.846Z,19.13
2022-11-28T00:49:53.722Z,17.27
2022-11-28T00:52:23.329Z,20.70
2022-11-28T00:54:53.167Z,21.43
2022-11-28T00:57:22.988Z,19.23
2022-11-28T00:59:52.795Z,19.77
2022-11-28T01:02:22.843Z,19.60
2022-11-28T01:04:52.893Z,20.73
2022-11-28T01:07:22.591Z,22.17
2022-11-28T01:09:53.291Z,20.70
2022-11-28T01:12:22.876Z,18.47
2022-11-28T01:14:53.721Z,20.87
2022-11-28T01:17:25.489Z,21.62
2022-11-28T01:19:55.302Z,21.07
2022-11-28T01:22:24.821Z,20.77
2022-11-28T01:24:54.836Z,21.67
2022-11-28T01:27:24.629Z,18.90
2022-11-28T01:29:54.513Z,21.43
2022-11-28T01:32:24.268Z,22.23
2022-11-28T01:34:54.055Z,22.23
2022-11-28T01:37:23.653Z,22.30
2022-11-28T01:39:53.513Z,21.17
2022-11-28T01:42:23.276Z,19.70
2022-11-28T01:45:04.344Z,20.23
2022-11-28T01:47:35.885Z,20.48
2022-11-28T01:50:08.009Z,20.35
2022-11-28T01:52:40.793Z,20.40
2022-11-28T01:55:13.914Z,21.67
2022-11-28T01:57:45.994Z,20.27
2022-11-28T02:00:21.006Z,22.40
2022-11-28T02:03:06.138Z,23.20
2022-11-28T02:05:37.284Z,22.22
2022-11-28T02:08:09.384Z,26.60
2022-11-28T02:10:58.432Z,25.67
2022-11-28T02:13:38.492Z,27.77
2022-11-28T02:16:37.346Z,24.67
2022-11-28T02:19:26.718Z,24.70
2022-11-28T02:21:59.537Z,26.00
2022-11-28T02:24:49.225Z,23.77
2022-11-28T02:27:22.055Z,24.43
2022-11-28T02:30:10.091Z,25.23
2022-11-28T02:33:01.473Z,23.33
2022-11-28T02:35:34.056Z,24.45
2022-11-28T02:38:19.028Z,24.80
2022-11-28T02:40:51.875Z,24.67
2022-11-28T02:43:33.267Z,26.73
2022-11-28T02:46:18.241Z,28.67
2022-11-28T02:49:06.692Z,26.17
2022-11-28T02:51:54.664Z,26.13
2022-11-28T02:54:26.428Z,26.13
2022-11-28T02:56:56.623Z,30.37
2022-11-28T02:59:41.229Z,29.57
2022-11-28T03:02:19.924Z,29.77
2022-11-28T03:05:05.565Z,26.23
2022-11-28T03:07:41.174Z,27.77
2022-11-28T03:10:30.631Z,28.24
2022-11-28T03:13:06.451Z,30.27
2022-11-28T03:15:41.824Z,28.43
2022-11-28T03:18:14.427Z,26.80
2022-11-28T03:20:50.574Z,27.60
2022-11-28T03:23:34.730Z,28.40
2022-11-28T03:26:13.168Z,28.70
2022-11-28T03:28:52.064Z,28.55
2022-11-28T03:31:25.369Z,31.57
2022-11-28T03:33:58.217Z,28.23
2022-11-28T03:36:33.969Z,27.97
2022-11-28T03:39:12.611Z,29.63
2022-11-28T03:41:51.036Z,28.23
2022-11-28T03:44:23.869Z,27.23
2022-11-28T03:46:56.171Z,30.17
2022-11-28T03:49:32.256Z,28.17
2022-11-28T03:52:08.139Z,29.90
2022-11-28T03:54:49.981Z,31.80
2022-11-28T03:57:27.303Z,27.53
2022-11-28T04:00:00.727Z,28.25
2022-11-28T04:02:53.178Z,32.37
2022-11-28T04:05:41.011Z,30.27
2022-11-28T04:08:23.159Z,27.33
2022-11-28T04:11:14.280Z,30.83
2022-11-28T04:13:56.177Z,25.50
2022-11-28T04:16:45.595Z,28.07
2022-11-28T04:19:30.148Z,27.13
2022-11-28T04:22:06.026Z,28.50
2022-11-28T04:24:54.206Z,27.37
2022-11-28T04:27:27.193Z,27.90
2022-11-28T04:30:00.357Z,28.23
2022-11-28T04:32:33.153Z,30.73
2022-11-28T04:35:09.020Z,30.80
2022-11-28T04:37:41.839Z,31.10
2022-11-28T04:40:13.814Z,29.27
2022-11-28T04:42:53.145Z,28.37
2022-11-28T04:45:35.306Z,32.10
2022-11-28T04:48:06.958Z,31.35
2022-11-28T04:50:45.161Z,30.97
2022-11-28T04:53:23.550Z,28.17
2022-11-28T04:55:56.391Z,29.07
2022-11-28T04:58:44.769Z,26.37
2022-11-28T05:01:17.662Z,32.30
2022-11-28T05:03:47.949Z,28.57
2022-11-28T05:06:32.145Z,31.10
2022-11-28T05:09:02.417Z,28.43
2022-11-28T05:11:32.464Z,28.87
2022-11-28T05:14:03.326Z,28.17
2022-11-28T05:16:33.454Z,26.95
2022-11-28T05:19:05.196Z,28.37
2022-11-28T05:21:35.049Z,25.10
2022-11-28T05:24:04.972Z,25.47
2022-11-28T05:26:35.424Z,23.30
2022-11-28T05:29:07.612Z,24.37
2022-11-28T05:31:39.040Z,27.43
2022-11-28T05:34:09.124Z,24.17
2022-11-28T05:36:41.573Z,24.77
2022-11-28T05:39:11.374Z,26.90
2022-11-28T05:41:41.171Z,23.40
2022-11-28T05:44:11.242Z,23.77
2022-11-28T05:46:41.053Z,22.77
2022-11-28T05:49:10.772Z,22.23
2022-11-28T05:51:40.641Z,22.63
2022-11-28T05:54:10.507Z,21.03
2022-11-28T05:56:42.504Z,21.23
2022-11-28T05:59:13.215Z,21.75
2022-11-28T06:04:12.250Z,22.55
2022-11-28T06:06:42.502Z,21.90
2022-11-28T06:09:12.319Z,25.07
2022-11-28T06:11:42.134Z,21.37
2022-11-28T06:14:12.451Z,21.27
2022-11-28T06:16:43.775Z,20.17
2022-11-28T06:19:14.419Z,21.87
2022-11-28T06:21:44.507Z,21.20
2022-11-28T06:24:14.293Z,18.60
2022-11-28T06:26:44.485Z,17.23
2022-11-28T06:29:14.385Z,18.17
2022-11-28T06:31:44.301Z,20.23
2022-11-28T06:34:14.490Z,19.63
2022-11-28T06:36:45.336Z,18.83
2022-11-28T06:39:16.566Z,19.02
2022-11-28T06:41:46.456Z,19.13
2022-11-28T06:44:17.961Z,19.97
2022-11-28T06:46:47.626Z,17.57
2022-11-28T06:49:17.432Z,18.80
2022-11-28T06:51:47.374Z,18.83
2022-11-28T06:54:17.295Z,18.80
2022-11-28T06:56:47.289Z,18.70
2022-11-28T06:59:17.036Z,20.57
2022-11-28T07:01:47.121Z,20.77
2022-11-28T07:04:16.728Z,21.00
2022-11-28T07:06:46.606Z,20.57
2022-11-28T07:09:16.228Z,20.80
2022-11-28T07:11:46.298Z,20.23
2022-11-28T07:14:15.803Z,19.83
2022-11-28T07:16:45.723Z,19.57
2022-11-28T07:19:15.343Z,20.80
2022-11-28T07:21:45.159Z,19.90
2022-11-28T07:24:14.831Z,23.43
2022-11-28T07:26:44.816Z,19.57
2022-11-28T07:29:19.112Z,21.07
2022-11-28T07:31:48.990Z,20.97
2022-11-28T07:34:18.545Z,20.70
2022-11-28T07:36:48.350Z,20.33
2022-11-28T07:39:18.159Z,20.53
2022-11-28T07:41:47.947Z,22.63
2022-11-28T07:44:20.448Z,23.83
2022-11-28T07:46:50.468Z,22.97
2022-11-28T07:49:20.111Z,22.50
2022-11-28T07:51:49.892Z,24.87
2022-11-28T07:54:19.518Z,24.07
2022-11-28T07:57:11.805Z,26.90
2022-11-28T07:59:20.895Z,25.27
2022-11-28T08:01:50.798Z,24.97
2022-11-28T08:04:20.705Z,28.10
2022-11-28T08:06:50.556Z,24.43
2022-11-28T08:09:20.194Z,26.47
2022-11-28T08:11:51.641Z,24.40
2022-11-28T08:14:24.682Z,25.17
2022-11-28T08:16:54.692Z,28.13
2022-11-28T08:19:29.372Z,24.80
2022-11-28T08:21:57.874Z,22.73
2022-11-28T08:24:27.680Z,23.23
2022-11-28T08:26:57.558Z,27.00
2022-11-28T08:29:27.400Z,27.83
2022-11-28T08:31:57.495Z,25.40
2022-11-28T08:34:27.623Z,24.32
2022-11-28T08:36:57.484Z,24.07
2022-11-28T08:39:27.358Z,27.17
2022-11-28T08:42:00.388Z,26.67
2022-11-28T08:44:30.811Z,27.70
2022-11-28T08:47:01.581Z,24.57
2022-11-28T08:49:31.391Z,23.73
2022-11-28T08:52:01.660Z,23.52
2022-11-28T08:54:31.559Z,25.33
2022-11-28T08:57:02.101Z,23.60
2022-11-28T08:59:33.632Z,23.57
2022-11-28T09:02:03.417Z,28.03
2022-11-28T09:04:33.551Z,25.00
2022-11-28T09:07:03.326Z,24.17
2022-11-28T09:09:33.226Z,24.73
2022-11-28T09:12:03.011Z,23.07
2022-11-28T09:14:33.043Z,23.07
2022-11-28T09:17:02.961Z,20.80
2022-11-28T09:19:32.946Z,19.33
2022-11-28T09:22:02.886Z,19.48
2022-11-28T09:24:33.016Z,18.80
2022-11-28T09:27:04.071Z,20.33
2022-11-28T09:29:33.857Z,17.62
2022-11-28T09:32:03.666Z,18.33
2022-11-28T09:34:33.654Z,17.23
2022-11-28T09:37:05.634Z,18.27
2022-11-28T09:39:50.289Z,17.85
2022-11-28T09:42:10.350Z,19.37
2022-11-28T09:45:08.645Z,15.33
2022-11-28T09:47:40.796Z,17.50
2022-11-28T09:50:26.206Z,15.43
2022-11-28T09:53:11.167Z,16.50
2022-11-28T09:55:53.069Z,15.70
2022-11-28T09:58:45.733Z,15.43
2022-11-28T10:01:18.256Z,15.23
2022-11-28T10:03:56.946Z,14.47
2022-11-28T10:06:32.904Z,15.67
2022-11-28T10:09:11.001Z,15.30
2022-11-28T10:11:50.249Z,15.77
2022-11-28T10:14:56.606Z,14.83
2022-11-28T10:17:35.158Z,13.23
2022-11-28T10:20:13.605Z,13.68
2022-11-28T10:23:03.336Z,13.83
2022-11-28T10:25:44.708Z,12.93
2022-11-28T10:31:02.075Z,13.13
2022-11-28T10:33:35.009Z,13.57
2022-11-28T10:36:07.013Z,12.68
2022-11-28T10:38:38.184Z,13.07
2022-11-28T10:41:19.987Z,14.20
2022-11-28T10:43:59.489Z,13.40
2022-11-28T10:46:38.265Z,14.30
2022-11-28T10:49:29.006Z,13.83
2022-11-28T10:52:19.321Z,13.17
2022-11-28T10:55:04.074Z,14.27
2022-11-28T10:57:42.956Z,12.50
2022-11-28T11:00:17.703Z,12.60
2022-11-28T11:03:02.327Z,12.07
2022-11-28T11:05:34.975Z,10.73
2022-11-28T11:08:14.687Z,11.40
2022-11-28T11:10:57.032Z,11.03
2022-11-28T11:13:28.169Z,11.35
2022-11-28T11:16:03.418Z,11.57
2022-11-28T11:18:38.462Z,11.38
2022-11-28T11:21:25.979Z,10.77
2022-11-28T11:24:18.316Z,10.07
2022-11-28T11:26:50.113Z,11.77
2022-11-28T11:29:31.548Z,9.83
2022-11-28T11:32:03.180Z,10.30
2022-11-28T11:34:41.868Z,8.93
2022-11-28T11:37:36.551Z,10.47
2022-11-28T11:40:25.456Z,8.37
2022-11-28T11:42:58.099Z,9.83
2022-11-28T11:45:35.953Z,8.93
2022-11-28T11:48:06.781Z,8.83
2022-11-28T11:50:38.251Z,9.83
2022-11-28T11:55:50.102Z,10.10
2022-11-28T11:58:28.683Z,9.40
2022-11-28T12:01:00.806Z,8.65
2022-11-28T12:03:33.780Z,8.97
2022-11-28T12:06:14.673Z,9.17
2022-11-28T12:08:44.199Z,8.87
2022-11-28T12:11:25.546Z,9.33
2022-11-28T12:13:57.921Z,7.07
2022-11-28T12:16:48.243Z,7.60
2022-11-28T12:19:36.257Z,8.45
2022-11-28T12:22:09.411Z,6.73
2022-11-28T12:25:06.221Z,9.17
2022-11-28T12:27:55.829Z,9.30
2022-11-28T12:30:34.233Z,7.83
2022-11-28T12:33:32.789Z,7.33
2022-11-28T12:36:11.986Z,7.15
2022-11-28T12:38:50.630Z,7.27
2022-11-28T12:41:32.239Z,6.78
2022-11-28T12:44:27.953Z,7.35
2022-11-28T12:47:18.945Z,8.55
2022-11-28T12:49:54.480Z,7.20
2022-11-28T12:52:40.581Z,6.55
2022-11-28T12:55:16.171Z,8.00
2022-11-28T12:58:10.144Z,7.53
2022-11-28T13:01:01.091Z,8.03
2022-11-28T13:03:57.960Z,7.42
2022-11-28T13:06:45.360Z,8.30
2022-11-28T13:09:32.551Z,7.53
2022-11-28T13:12:32.897Z,8.20
2022-11-28T13:15:05.824Z,8.40
2022-11-28T13:17:41.771Z,7.83
2022-11-28T13:20:26.113Z,8.17
2022-11-28T13:23:05.939Z,7.60
2022-11-28T13:25:50.874Z,7.83
2022-11-28T13:28:32.276Z,7.07
2022-11-28T13:31:20.022Z,6.90
2022-11-28T13:33:57.574Z,8.17
2022-11-28T13:39:13.401Z,7.22
2022-11-28T13:44:23.925Z,8.08
2022-11-28T13:46:53.889Z,8.83
2022-11-28T13:49:26.412Z,8.13
2022-11-28T13:52:22.872Z,10.93
2022-11-28T13:54:55.294Z,9.40
2022-11-28T13:57:28.272Z,8.03
2022-11-28T14:00:22.785Z,8.63
2022-11-28T14:03:00.200Z,9.17
2022-11-28T14:05:36.171Z,7.67
2022-11-28T14:08:08.486Z,9.38
2022-11-28T14:10:58.685Z,8.75
2022-11-28T14:13:41.563Z,9.07
2022-11-28T14:16:33.975Z,8.17
2022-11-28T14:19:06.903Z,6.77
2022-11-28T14:21:54.493Z,7.40
2022-11-28T14:24:47.133Z,7.22
2022-11-28T14:27:23.669Z,7.30
2022-11-28T14:29:56.985Z,5.70
2022-11-28T14:32:35.758Z,7.23
2022-11-28T14:35:09.632Z,6.97
2022-11-28T14:37:55.403Z,5.83
2022-11-28T14:40:51.101Z,6.57
2022-11-28T14:43:29.885Z,7.45
2022-11-28T14:46:26.667Z,7.47
2022-11-28T14:49:02.816Z,6.83
2022-11-28T14:52:09.811Z,7.87
2022-11-28T14:54:39.187Z,6.43
2022-11-28T14:57:14.908Z,7.60
2022-11-28T14:59:45.648Z,7.13
2022-11-28T15:02:33.926Z,7.40
2022-11-28T15:05:09.425Z,7.30
2022-11-28T15:08:13.231Z,8.37
2022-11-28T15:11:00.807Z,6.97
2022-11-28T15:13:59.245Z,8.63
2022-11-28T15:16:31.657Z,9.03
2022-11-28T15:19:07.298Z,9.07
2022-11-28T15:21:45.543Z,9.03
2022-11-28T15:24:24.992Z,8.37
2022-11-28T15:27:14.829Z,9.33
2022-11-28T15:29:47.955Z,8.73
2022-11-28T15:32:17.525Z,9.27
2022-11-28T15:34:50.371Z,8.87
2022-11-28T15:37:20.738Z,10.00
2022-11-28T15:39:51.235Z,7.97
2022-11-28T15:42:33.785Z,8.90
2022-11-28T15:45:10.531Z,9.40
2022-11-28T15:47:42.857Z,9.50
2022-11-28T15:50:25.660Z,10.53
2022-11-28T15:52:59.942Z,10.83
2022-11-28T15:55:34.690Z,8.77
2022-11-28T15:58:15.348Z,9.50
2022-11-28T16:00:51.986Z,9.33
2022-11-28T16:03:24.790Z,8.80
2022-11-28T16:05:57.072Z,9.60
2022-11-28T16:08:30.478Z,9.63
2022-11-28T16:11:02.666Z,9.47
2022-11-28T16:13:34.426Z,8.53
2022-11-28T16:18:34.250Z,8.70
2022-11-28T16:21:04.662Z,8.73
2022-11-28T16:23:37.978Z,8.30
2022-11-28T16:26:10.889Z,9.20
2022-11-28T16:28:41.357Z,8.97
2022-11-28T16:31:16.093Z,9.00
2022-11-28T16:33:50.374Z,8.67
2022-11-28T16:36:29.339Z,9.23
2022-11-28T16:39:14.386Z,9.87
2022-11-28T16:41:56.782Z,8.90
2022-11-28T16:44:28.204Z,10.25
2022-11-28T16:47:00.029Z,8.93
2022-11-28T16:49:42.892Z,8.20
2022-11-28T16:52:27.983Z,11.03
2022-11-28T16:54:59.216Z,9.40
2022-11-28T16:57:40.956Z,8.50
2022-11-28T17:00:11.312Z,9.00
2022-11-28T17:02:41.148Z,10.93
2022-11-28T17:05:11.013Z,9.73
2022-11-28T17:07:40.875Z,9.17
2022-11-28T17:10:15.256Z,9.40
2022-11-28T17:12:45.165Z,8.50
2022-11-28T17:15:20.682Z,9.50
2022-11-28T17:17:50.764Z,9.47
2022-11-28T17:20:20.306Z,9.10
2022-11-28T17:22:51.379Z,9.57
2022-11-28T17:25:23.034Z,8.83
2022-11-28T17:27:53.051Z,9.00
2022-11-28T17:30:23.855Z,11.38
2022-11-28T17:32:53.998Z,8.70
2022-11-28T17:35:26.245Z,8.33
2022-11-28T17:37:56.345Z,9.87
2022-11-28T17:40:36.401Z,9.80
2022-11-28T17:43:07.853Z,10.08
2022-11-28T17:45:38.673Z,8.97
2022-11-28T17:48:11.431Z,10.47
2022-11-28T17:50:43.712Z,10.50
2022-11-28T17:53:16.963Z,8.35
2022-11-28T17:55:53.753Z,8.70
2022-11-28T17:58:26.457Z,9.38
2022-11-28T18:01:00.436Z,8.83
2022-11-28T18:03:30.179Z,10.30
2022-11-28T18:06:00.069Z,9.45
2022-11-28T18:08:30.359Z,10.17
2022-11-28T18:11:06.333Z,9.13
2022-11-28T18:13:36.210Z,9.60
2022-11-28T18:16:06.954Z,9.90
2022-11-28T18:18:36.993Z,10.03
2022-11-28T18:21:11.317Z,9.73
2022-11-28T18:23:44.194Z,9.73
2022-11-28T18:26:17.796Z,9.40
2022-11-28T18:28:48.478Z,9.77
2022-11-28T18:31:26.773Z,9.40
2022-11-28T18:34:01.597Z,9.53
2022-11-28T18:36:29.782Z,9.20
2022-11-28T18:41:32.672Z,8.60
2022-11-28T18:44:04.908Z,10.60
2022-11-28T18:46:35.483Z,10.97
2022-11-28T18:49:07.976Z,9.68
2022-11-28T18:51:37.842Z,9.60
2022-11-28T18:54:08.253Z,9.53
2022-11-28T18:56:40.112Z,9.23
2022-11-28T18:59:11.856Z,10.47
2022-11-28T19:01:42.553Z,9.27
2022-11-28T19:04:15.448Z,8.83
2022-11-28T19:06:48.304Z,9.67
2022-11-28T19:09:18.822Z,9.90
2022-11-28T19:11:48.696Z,9.78
2022-11-28T19:14:23.502Z,9.95
2022-11-28T19:16:54.157Z,9.77
2022-11-28T19:19:24.090Z,11.63
2022-11-28T19:21:54.201Z,9.90
2022-11-28T19:24:25.700Z,11.45
2022-11-28T19:26:55.675Z,10.17
2022-11-28T19:29:25.559Z,9.07
2022-11-28T19:31:55.910Z,10.48
2022-11-28T19:34:25.862Z,9.67
2022-11-28T19:36:56.080Z,10.20
2022-11-28T19:39:32.313Z,8.13
2022-11-28T19:42:02.646Z,9.40
2022-11-28T19:44:32.541Z,9.53
2022-11-28T19:47:02.691Z,10.63
2022-11-28T19:49:32.521Z,10.07
2022-11-28T19:52:04.057Z,9.63
2022-11-28T19:57:07.653Z,8.63
2022-11-28T19:59:37.616Z,9.07
2022-11-28T20:02:08.593Z,9.53
2022-11-28T20:04:42.656Z,9.80
2022-11-28T20:07:12.495Z,9.93
2022-11-28T20:09:43.673Z,8.13
2022-11-28T20:12:13.611Z,8.65
2022-11-28T20:14:43.564Z,7.93
2022-11-28T20:17:13.211Z,9.43
2022-11-28T20:19:45.144Z,8.83
2022-11-28T20:22:17.091Z,8.90
2022-11-28T20:24:48.473Z,9.93
2022-11-28T20:27:18.134Z,6.73
2022-11-28T20:29:51.198Z,9.23
2022-11-28T20:32:20.959Z,8.10
2022-11-28T20:34:52.506Z,8.28
2022-11-28T20:37:24.362Z,8.70
2022-11-28T20:39:54.613Z,10.00
2022-11-28T20:42:24.670Z,10.80
2022-11-28T20:44:54.475Z,9.17
2022-11-28T20:47:24.485Z,10.43
2022-11-28T20:49:54.310Z,10.40
2022-11-28T20:52:23.830Z,10.03
2022-11-28T20:54:55.680Z,9.03
2022-11-28T20:57:29.767Z,9.10
2022-11-28T20:59:59.567Z,7.80
2022-11-28T21:02:29.407Z,8.87
2022-11-28T21:04:59.388Z,9.23
2022-11-28T21:07:31.080Z,9.53
2022-11-28T21:12:29.504Z,8.88
2022-11-28T21:14:59.335Z,10.70
2022-11-28T21:17:37.849Z,10.10
2022-11-28T21:20:09.526Z,10.23
2022-11-28T21:22:39.379Z,9.07
2022-11-28T21:25:09.090Z,9.73
2022-11-28T21:27:39.766Z,10.83
2022-11-28T21:30:10.209Z,11.12
2022-11-28T21:32:40.310Z,10.70
2022-11-28T21:35:10.345Z,9.23
2022-11-28T21:37:40.247Z,9.80
2022-11-28T21:40:10.545Z,10.30
2022-11-28T21:42:40.041Z,8.93
2022-11-28T21:45:10.400Z,11.13
2022-11-28T21:47:42.483Z,9.40
2022-11-28T21:50:14.778Z,9.10
2022-11-28T21:52:46.621Z,9.00
2022-11-28T21:55:18.674Z,10.07
2022-11-28T21:57:50.267Z,9.60
2022-11-28T22:00:45.562Z,10.65
2022-11-28T22:02:52.088Z,9.97
2022-11-28T22:05:23.748Z,10.97
2022-11-28T22:07:53.669Z,9.27
2022-11-28T22:10:24.466Z,10.00
2022-11-28T22:12:54.318Z,7.45
2022-11-28T22:15:24.491Z,10.20
2022-11-28T22:17:54.785Z,10.23
2022-11-28T22:20:24.979Z,10.18
2022-11-28T22:22:54.791Z,10.50
2022-11-28T22:25:24.631Z,10.95
2022-11-28T22:27:54.608Z,10.50
2022-11-28T22:30:26.166Z,11.37
2022-11-28T22:32:56.032Z,9.78
2022-11-28T22:35:26.022Z,11.60
2022-11-28T22:37:55.807Z,11.40
2022-11-28T22:40:26.587Z,10.60
2022-11-28T22:42:57.394Z,10.53
2022-11-28T22:45:26.947Z,10.40
2022-11-28T22:47:57.254Z,10.07
2022-11-28T22:50:27.603Z,11.20
2022-11-28T22:52:57.500Z,10.53
2022-11-28T22:55:27.389Z,12.47
2022-11-28T22:57:57.646Z,11.83
2022-11-28T23:00:27.493Z,12.17
2022-11-28T23:02:57.620Z,10.00
2022-11-28T23:05:27.500Z,10.20
2022-11-28T23:07:57.586Z,12.10
2022-11-28T23:10:27.429Z,10.17
2022-11-28T23:12:58.684Z,9.93
2022-11-28T23:15:28.575Z,11.27
2022-11-28T23:17:59.029Z,11.38
2022-11-28T23:20:28.890Z,12.40
2022-11-28T23:22:59.699Z,11.53
2022-11-28T23:25:29.803Z,12.27
2022-11-28T23:27:59.631Z,12.93
2022-11-28T23:30:29.506Z,12.60
2022-11-28T23:32:59.402Z,12.03
2022-11-28T23:35:29.955Z,12.50
2022-11-28T23:37:59.542Z,13.40
2022-11-28T23:40:29.480Z,13.00
2022-11-28T23:42:59.307Z,12.60
2022-11-28T23:45:29.147Z,11.83
2022-11-28T23:47:58.957Z,13.10
2022-11-28T23:50:28.919Z,12.87
2022-11-28T23:52:58.716Z,12.10
2022-11-28T23:55:28.506Z,13.23
2022-11-28T23:57:59.620Z,12.50
